W2KFV-2 Weather Reports


Display with metric or nautical units.
time (UTC)temp
F
wind
direction
speed
MPH
gust
MPH
rain 1hr
in
rain 24hr
in
rain mn
in
humidity
%
barometer
mb
20200406095004 47 49 1.0 2.0 0.00 0.11 0.11 90 1014.2
20200406094004 47 302 0.0 1.0 0.00 0.11 0.11 90 1014.2
20200406093004 47 339 0.0 3.0 0.01 0.11 0.11 91 1013.9
20200406092004 47 33 1.0 5.0 0.01 0.11 0.11 91 1013.7
20200406091004 47 317 0.0 2.0 0.05 0.11 0.11 92 1013.7
20200406090004 47 46 1.0 3.0 0.06 0.11 0.11 92 1013.5
20200406085004 47 344 3.0 9.0 0.08 0.11 0.11 93 1013.3
20200406084004 47 15 3.0 6.0 0.11 0.11 0.11 94 1013.3
20200406083004 47 29 1.0 5.0 0.10 0.10 0.10 95 1013.2
20200406082003 47 11 2.0 5.0 0.10 0.10 0.10 95 1013.5
20200406081004 47 41 3.0 6.0 0.06 0.06 0.06 95 1013.5
20200406080003 47 37 2.0 3.0 0.05 0.05 0.05 94 1013.7
20200406075004 47 35 1.0 3.0 0.03 0.03 0.03 94 1014.2
20200406074004 47 332 1.0 3.0 0.00 0.00 0.00 94 1013.9
20200406073004 47 340 1.0 5.0 0.00 0.00 0.00 94 1013.8
20200406072004 47 12 2.0 5.0 0.00 0.00 0.00 93 1013.8
20200406071004 47 7 3.0 6.0 0.00 0.00 0.00 93 1013.8
20200406070005 47 344 1.0 2.0 0.00 0.00 0.00 93 1013.8
20200406065004 47 338 0.0 0.0 0.00 0.00 0.00 94 1013.8
20200406064004 47 51 0.0 1.0 0.00 0.00 0.00 94 1013.5
20200406063004 47 38 0.0 3.0 0.00 0.00 0.00 94 1013.6
20200406062004 47 334 0.0 3.0 0.00 0.00 0.00 94 1013.6
20200406061004 47 34 1.0 3.0 0.00 0.00 0.00 94 1013.4
20200406060004 47 33 2.0 5.0 0.00 0.00 0.00 94 1013.3
20200406055004 47 32 1.0 3.0 0.00 0.00 0.00 94 1013.5
20200406054004 47 326 0.0 1.0 0.00 0.00 0.00 94 1013.7
20200406053004 47 326 0.0 2.0 0.00 0.00 0.00 94 1013.6
20200406052004 46 39 1.0 3.0 0.00 0.00 0.00 94 1013.5
20200406051004 46 20 0.0 1.0 0.00 0.00 0.00 94 1013.6
20200406050004 46 20 0.0 0.0 0.00 0.00 0.00 93 1013.5
20200406045004 46 20 0.0 1.0 0.00 0.00 0.00 93 1013.5
20200406044003 46 20 0.0 0.0 0.00 0.00 0.00 93 1013.5
20200406043004 46 20 0.0 0.0 0.00 0.00 0.00 93 1013.6
20200406042004 46 20 0.0 1.0 0.00 0.00 0.00 93 1013.7
20200406041004 46 20 0.0 0.0 0.00 0.00 0.00 93 1013.6
20200406040003 46 20 0.0 0.0 0.00 0.00 0.00 92 1013.7
20200406035004 47 20 0.0 1.0 0.00 0.00 0.00 92 1013.8
20200406034004 47 20 0.0 1.0 0.00 0.00 0.00 92 1013.7
20200406033004 47 20 0.0 0.0 0.00 0.00 0.00 91 1013.6
20200406032004 48 20 0.0 0.0 0.00 0.00 0.00 91 1013.5
20200406031004 48 20 0.0 1.0 0.00 0.00 0.00 91 1013.5
20200406030004 48 20 0.0 1.0 0.00 0.00 0.00 90 1013.7
20200406025004 49 20 0.0 1.0 0.00 0.00 0.00 90 1013.7
20200406024004 49 135 0.0 1.0 0.00 0.00 0.00 89 1013.7
20200406023004 49 135 0.0 1.0 0.00 0.00 0.00 89 1013.8
20200406022003 49 135 0.0 0.0 0.00 0.00 0.00 89 1013.9
20200406021004 50 135 0.0 1.0 0.00 0.00 0.00 89 1013.9
20200406020003 50 135 0.0 1.0 0.00 0.00 0.00 89 1013.9
20200406015004 50 112 0.0 1.0 0.00 0.00 0.00 89 1013.9
20200406014003 50 130 0.0 2.0 0.00 0.00 0.00 88 1013.9
20200406013004 50 138 0.0 2.0 0.00 0.00 0.00 88 1013.9
20200406012003 50 134 1.0 3.0 0.00 0.00 0.00 88 1013.9
20200406011004 50 149 1.0 3.0 0.00 0.00 0.00 88 1014.0
20200406010007 50 167 0.0 3.0 0.00 0.00 0.00 87 1013.8
20200406005004 50 129 0.0 2.0 0.00 0.00 0.00 87 1014.0
20200406004004 51 123 1.0 3.0 0.00 0.00 0.00 86 1013.9
20200406003004 51 136 1.0 3.0 0.00 0.00 0.00 86 1013.8
20200406002003 51 150 0.0 2.0 0.00 0.00 0.00 85 1013.7
20200406001004 51 129 1.0 5.0 0.00 0.00 0.00 85 1013.7
20200406000003 52 126 1.0 3.0 0.00 0.00 0.00 84 1013.8
20200405235004 52 166 1.0 5.0 0.00 0.00 0.00 84 1013.7
20200405234004 52 124 0.0 3.0 0.00 0.00 0.00 83 1013.7
20200405233004 53 126 2.0 7.0 0.00 0.00 0.00 82 1013.6
20200405232004 53 140 2.0 5.0 0.00 0.00 0.00 82 1013.7
20200405231004 53 129 0.0 3.0 0.00 0.00 0.00 82 1013.7
20200405230004 53 124 1.0 5.0 0.00 0.00 0.00 82 1013.9
20200405225004 53 114 1.0 5.0 0.00 0.00 0.00 82 1013.9
20200405224004 53 121 2.0 6.0 0.00 0.00 0.00 82 1013.9
20200405223004 53 141 3.0 6.0 0.00 0.00 0.00 82 1014.0
20200405222003 53 184 1.0 8.0 0.00 0.00 0.00 82 1014.1
20200405221003 53 146 3.0 10.0 0.00 0.00 0.00 82 1014.2
20200405220005 53 133 5.0 9.0 0.00 0.00 0.00 81 1014.2
20200405215003 54 131 4.0 12.0 0.00 0.00 0.00 78 1014.1
20200405214004 55 147 4.0 9.0 0.00 0.00 0.00 77 1014.0
20200405213004 55 142 2.0 8.0 0.00 0.00 0.00 77 1013.9
20200405212004 56 193 3.0 8.0 0.00 0.00 0.00 76 1013.8
20200405211003 56 154 2.0 7.0 0.00 0.00 0.00 75 1013.8
20200405210003 56 141 5.0 9.0 0.00 0.00 0.00 75 1013.8
20200405205004 56 131 6.0 9.0 0.00 0.00 0.00 74 1013.8
20200405204004 57 111 3.0 8.0 0.00 0.00 0.00 74 1013.8
20200405203003 58 141 3.0 8.0 0.00 0.00 0.00 71 1013.8
20200405202003 58 154 3.0 10.0 0.00 0.00 0.00 71 1013.8
20200405201004 59 141 3.0 8.0 0.00 0.00 0.00 68 1013.9
20200405200005 59 138 3.0 8.0 0.00 0.00 0.00 68 1014.0
20200405195003 59 208 4.0 9.0 0.00 0.00 0.00 67 1014.0
20200405194003 60 134 3.0 8.0 0.00 0.00 0.00 66 1014.1
20200405193003 60 179 5.0 12.0 0.00 0.00 0.00 67 1014.2
20200405192003 60 149 4.0 10.0 0.00 0.00 0.00 66 1014.2
20200405191004 60 167 5.0 10.0 0.00 0.00 0.00 67 1014.3
20200405190006 60 133 2.0 9.0 0.00 0.00 0.00 67 1014.5
20200405185004 59 134 4.0 8.0 0.00 0.00 0.00 68 1014.5
20200405184003 60 169 1.0 7.0 0.00 0.00 0.00 68 1014.6
20200405183004 59 93 2.0 6.0 0.00 0.00 0.00 69 1014.7
20200405182004 59 153 2.0 6.0 0.00 0.00 0.00 71 1014.9
20200405181004 59 184 2.0 6.0 0.00 0.00 0.00 71 1015.0
20200405180003 57 115 3.0 7.0 0.00 0.00 0.00 74 1015.2
20200405175004 56 133 2.0 6.0 0.00 0.00 0.00 75 1015.3
20200405174003 57 145 3.0 6.0 0.00 0.00 0.00 75 1015.3
20200405173004 56 154 2.0 6.0 0.00 0.00 0.00 76 1015.4
20200405172004 56 129 2.0 6.0 0.00 0.00 0.00 76 1015.4
20200405171004 56 155 2.0 3.0 0.00 0.00 0.00 76 1015.5
20200405170004 55 122 3.0 7.0 0.00 0.00 0.00 77 1015.5
20200405165003 55 128 3.0 20.0 0.00 0.00 0.00 76 1015.6
20200405163008 56 133 2.0 6.0 0.00 0.00 0.00 75 1015.8
20200405162005 56 118 2.0 5.0 0.00 0.00 0.00 76 1015.9
20200405161005 56 136 1.0 5.0 0.00 0.00 0.00 76 1016.0
20200405160005 56 145 1.0 3.0 0.00 0.00 0.00 75 1016.0
20200405155006 55 135 1.0 3.0 0.00 0.00 0.00 76 1016.2
20200405154005 55 114 1.0 3.0 0.00 0.00 0.00 76 1016.3
20200405153006 55 194 2.0 6.0 0.00 0.00 0.00 76 1016.3
20200405152006 56 122 1.0 3.0 0.00 0.00 0.00 75 1016.3
20200405151005 56 145 1.0 3.0 0.00 0.00 0.00 75 1016.4
20200405150006 56 137 0.0 3.0 0.00 0.00 0.00 75 1016.4
20200405145006 55 185 0.0 2.0 0.00 0.00 0.00 77 1016.4
20200405144005 54 205 0.0 3.0 0.00 0.00 0.00 78 1016.5
20200405143006 53 77 1.0 5.0 0.00 0.00 0.00 79 1016.5
20200405142005 53 304 0.0 3.0 0.00 0.00 0.00 81 1016.5
20200405141005 52 138 2.0 3.0 0.00 0.00 0.00 81 1016.5
20200405140006 52 152 0.0 3.0 0.00 0.00 0.00 84 1016.4
20200405135005 51 154 1.0 3.0 0.00 0.00 0.00 84 1016.4
20200405134005 50 140 0.0 6.0 0.00 0.00 0.00 87 1016.3
20200405133006 49 113 2.0 5.0 0.00 0.00 0.00 87 1016.3
20200405132005 49 118 1.0 3.0 0.00 0.00 0.00 88 1016.3
20200405131005 49 125 1.0 3.0 0.00 0.00 0.00 90 1016.3
20200405130005 48 133 1.0 3.0 0.00 0.00 0.00 91 1016.4
20200405125005 47 129 2.0 3.0 0.00 0.00 0.00 91 1016.4
20200405124005 47 181 1.0 3.0 0.00 0.00 0.00 92 1016.5
20200405123006 47 217 1.0 3.0 0.00 0.00 0.00 93 1016.4
20200405122005 47 215 1.0 2.0 0.00 0.00 0.00 93 1016.4
20200405121005 46 187 0.0 2.0 0.00 0.00 0.00 94 1016.4
20200405120005 46 155 1.0 2.0 0.00 0.00 0.00 94 1016.2
20200405115005 46 115 2.0 3.0 0.00 0.00 0.00 94 1016.1
20200405114005 46 127 1.0 3.0 0.00 0.00 0.00 94 1016.1
20200405113007 46 113 1.0 2.0 0.00 0.00 0.00 94 1016.1
20200405112005 45 173 0.0 1.0 0.00 0.00 0.00 94 1016.0
20200405111005 45 99 2.0 3.0 0.00 0.00 0.00 94 1015.8
20200405110005 45 145 1.0 2.0 0.00 0.00 0.00 94 1015.7
20200405105005 45 150 1.0 5.0 0.00 0.00 0.00 94 1015.5
20200405104005 45 124 0.0 2.0 0.00 0.00 0.00 94 1015.5
20200405103006 45 103 1.0 3.0 0.00 0.00 0.00 94 1015.4
20200405102005 45 126 0.0 3.0 0.00 0.00 0.00 94 1015.3
20200405101005 45 130 1.0 3.0 0.00 0.00 0.00 93 1015.3
20200405100004 45 156 0.0 2.0 0.00 0.00 0.00 93 1015.3